Time;durP1;ratioP1;P1;durP2;ratioP2;P2;SDS_P1;SDS_P2;PMS_P1;PMS_P2;Temp;Humidity;BMP_temperature;BMP_pressure;BME280_temperature;BME280_humidity;BME280_pressure;Samples;Min_cycle;Max_cycle;Signal;HPM_P1;HPM_P2
2020/12/18 00:01:32;;;;;;;4.63;3.97;;;;;;;;;;5091228;28;20201;-77
2020/12/18 00:03:59;;;;;;;5.57;4.05;;;;;;;;;;5090969;28;20285;-76
2020/12/18 00:06:32;;;;;;;8.13;5.40;;;;;;;;;;5092563;28;20197;-76
2020/12/18 00:08:59;;;;;;;7.45;4.22;;;;;;;;;;5092581;28;20209;-76
2020/12/18 00:11:26;;;;;;;6.60;4.13;;;;;;;;;;5092829;28;20320;-76
2020/12/18 00:13:54;;;;;;;6.72;4.32;;;;;;;;;;5093655;28;20928;-76
2020/12/18 00:16:21;;;;;;;4.40;3.38;;;;;;;;;;5094702;28;20288;-77
2020/12/18 00:18:49;;;;;;;5.05;3.80;;;;;;;;;;5094591;28;20552;-77
2020/12/18 00:21:17;;;;;;;5.25;3.55;;;;;;;;;;5094353;28;20207;-78
2020/12/18 00:23:44;;;;;;;7.22;4.65;;;;;;;;;;5090334;28;20564;-78
2020/12/18 00:26:11;;;;;;;6.20;4.97;;;;;;;;;;5089967;28;20194;-78
2020/12/18 00:28:38;;;;;;;7.78;4.53;;;;;;;;;;5074028;28;20205;-78
2020/12/18 00:31:05;;;;;;;4.72;4.22;;;;;;;;;;5092063;28;20197;-78
2020/12/18 00:33:31;;;;;;;8.40;5.32;;;;;;;;;;5092468;28;20245;-78
2020/12/18 00:35:59;;;;;;;7.35;4.35;;;;;;;;;;5092404;28;20305;-79
2020/12/18 00:38:26;;;;;;;6.82;4.50;;;;;;;;;;5094050;28;20204;-78
2020/12/18 00:40:52;;;;;;;10.52;5.10;;;;;;;;;;5093982;28;20607;-78
2020/12/18 00:43:19;;;;;;;5.15;4.22;;;;;;;;;;5094093;28;20221;-77
2020/12/18 00:45:46;;;;;;;6.75;4.22;;;;;;;;;;5090151;28;20204;-78
2020/12/18 00:48:13;;;;;;;7.63;4.63;;;;;;;;;;5089787;28;20284;-77
2020/12/18 00:50:40;;;;;;;8.18;4.63;;;;;;;;;;5091729;28;20201;-78
2020/12/18 00:53:09;;;;;;;8.10;4.80;;;;;;;;;;5091422;28;20232;-78
2020/12/18 00:55:36;;;;;;;6.13;4.60;;;;;;;;;;5076308;28;20230;-78
2020/12/18 00:58:02;;;;;;;6.65;4.60;;;;;;;;;;5072151;28;20211;-79
2020/12/18 01:00:29;;;;;;;9.95;4.65;;;;;;;;;;5073433;28;20216;-77
2020/12/18 01:02:56;;;;;;;7.15;4.18;;;;;;;;;;5073407;28;20218;-77
2020/12/18 01:05:23;;;;;;;9.57;4.38;;;;;;;;;;5073239;28;20222;-78
2020/12/18 01:07:50;;;;;;;7.10;5.18;;;;;;;;;;5069216;28;20194;-77
2020/12/18 01:10:17;;;;;;;10.75;4.75;;;;;;;;;;5068972;28;20276;-79
2020/12/18 01:12:44;;;;;;;10.10;4.50;;;;;;;;;;5071038;28;20209;-76
2020/12/18 01:15:11;;;;;;;6.88;4.53;;;;;;;;;;5070838;28;20198;-76
2020/12/18 01:17:38;;;;;;;11.75;4.75;;;;;;;;;;5071025;28;20217;-78
2020/12/18 01:20:05;;;;;;;6.85;4.90;;;;;;;;;;5072023;28;20208;-77
2020/12/18 01:22:31;;;;;;;9.30;4.40;;;;;;;;;;5072838;28;20296;-78
2020/12/18 01:24:58;;;;;;;8.85;4.85;;;;;;;;;;5072765;28;20312;-77
2020/12/18 01:27:26;;;;;;;10.30;5.38;;;;;;;;;;5073002;28;20323;-79
2020/12/18 01:29:53;;;;;;;11.43;5.03;;;;;;;;;;5069144;28;20237;-79
2020/12/18 01:32:20;;;;;;;8.40;5.05;;;;;;;;;;5068638;28;20501;-78
2020/12/18 01:34:47;;;;;;;8.57;4.72;;;;;;;;;;5070437;28;20224;-78
2020/12/18 01:37:14;;;;;;;6.68;5.32;;;;;;;;;;5070420;28;20208;-79
2020/12/18 01:39:41;;;;;;;10.70;5.50;;;;;;;;;;5070805;28;20202;-80
2020/12/18 01:42:07;;;;;;;8.98;5.13;;;;;;;;;;5071720;28;20296;-79
2020/12/18 01:44:35;;;;;;;7.68;5.10;;;;;;;;;;5072505;28;20224;-77
2020/12/18 01:47:02;;;;;;;7.25;5.28;;;;;;;;;;5072550;28;20198;-78
2020/12/18 01:49:29;;;;;;;11.75;5.20;;;;;;;;;;5072412;28;20280;-78
2020/12/18 01:51:57;;;;;;;6.30;5.07;;;;;;;;;;5068673;28;20232;-79
2020/12/18 01:54:24;;;;;;;10.15;4.93;;;;;;;;;;5068467;28;20284;-77
2020/12/18 01:56:52;;;;;;;7.43;5.53;;;;;;;;;;5070393;28;20198;-78
2020/12/18 01:59:19;;;;;;;6.95;4.70;;;;;;;;;;5070172;28;20601;-78
2020/12/18 02:01:47;;;;;;;7.07;5.65;;;;;;;;;;5070396;28;20562;-77
2020/12/18 02:04:14;;;;;;;8.20;5.20;;;;;;;;;;5050046;28;20237;-79
2020/12/18 02:06:43;;;;;;;9.30;5.55;;;;;;;;;;5052202;28;20209;-77
2020/12/18 02:09:10;;;;;;;14.85;5.32;;;;;;;;;;5052358;28;20201;-77
2020/12/18 02:11:37;;;;;;;11.60;5.78;;;;;;;;;;5052257;28;20271;-78
2020/12/18 02:14:04;;;;;;;7.47;4.82;;;;;;;;;;5066003;28;20309;-78
2020/12/18 02:16:32;;;;;;;7.18;5.25;;;;;;;;;;5068110;28;20202;-76
2020/12/18 02:19:00;;;;;;;6.60;5.63;;;;;;;;;;5069908;28;20193;-80
2020/12/18 02:21:27;;;;;;;6.13;5.53;;;;;;;;;;5069953;28;20205;-79
2020/12/18 02:23:54;;;;;;;9.52;5.45;;;;;;;;;;5070143;28;20647;-78
2020/12/18 02:26:22;;;;;;;7.93;6.00;;;;;;;;;;5071066;28;20296;-78
2020/12/18 02:28:48;;;;;;;16.95;6.70;;;;;;;;;;5072282;28;20332;-78
2020/12/18 02:31:15;;;;;;;13.02;6.32;;;;;;;;;;5071992;28;20204;-77
2020/12/18 02:33:42;;;;;;;7.25;5.45;;;;;;;;;;5071871;28;20671;-76
2020/12/18 02:36:09;;;;;;;7.20;5.43;;;;;;;;;;5068158;28;20206;-77
2020/12/18 02:38:37;;;;;;;8.35;5.70;;;;;;;;;;5068011;28;20676;-79
2020/12/18 02:41:04;;;;;;;6.88;5.20;;;;;;;;;;5052258;28;20535;-78
2020/12/18 02:43:31;;;;;;;7.38;5.60;;;;;;;;;;5069599;28;20308;-77
2020/12/18 02:46:00;;;;;;;10.02;4.97;;;;;;;;;;5069842;28;20198;-79
2020/12/18 02:48:27;;;;;;;9.00;5.55;;;;;;;;;;5071060;28;20202;-76
2020/12/18 02:50:54;;;;;;;6.13;4.97;;;;;;;;;;5071957;28;20212;-78
2020/12/18 02:53:22;;;;;;;11.15;5.82;;;;;;;;;;5071803;28;20222;-78
2020/12/18 02:55:49;;;;;;;6.28;5.20;;;;;;;;;;5088742;28;20229;-77
2020/12/18 02:58:16;;;;;;;9.63;6.20;;;;;;;;;;5089336;28;20236;-77
2020/12/18 03:00:44;;;;;;;6.45;4.75;;;;;;;;;;5091777;28;20665;-78
2020/12/18 03:03:10;;;;;;;7.20;5.35;;;;;;;;;;5075771;28;20683;-78
2020/12/18 03:05:37;;;;;;;9.40;5.25;;;;;;;;;;5093523;28;20259;-79
2020/12/18 03:08:04;;;;;;;7.53;5.80;;;;;;;;;;5093949;28;20262;-76
2020/12/18 03:10:31;;;;;;;9.43;5.03;;;;;;;;;;5094807;28;20288;-78
2020/12/18 03:12:59;;;;;;;8.75;5.35;;;;;;;;;;5095487;28;20277;-77
2020/12/18 03:15:25;;;;;;;7.28;4.72;;;;;;;;;;5095536;28;20209;-77
2020/12/18 03:17:53;;;;;;;10.20;5.60;;;;;;;;;;5095796;28;20269;-79
2020/12/18 03:20:20;;;;;;;6.97;5.50;;;;;;;;;;5091366;28;20197;-76
2020/12/18 03:22:47;;;;;;;7.65;5.45;;;;;;;;;;5091544;28;20292;-77
2020/12/18 03:25:14;;;;;;;10.98;6.10;;;;;;;;;;5093216;28;20220;-79
2020/12/18 03:27:40;;;;;;;6.63;5.22;;;;;;;;;;5093118;28;20619;-76
2020/12/18 03:30:07;;;;;;;9.68;5.00;;;;;;;;;;5093559;28;20557;-77
2020/12/18 03:32:34;;;;;;;11.07;5.47;;;;;;;;;;5094348;28;20677;-77
2020/12/18 03:35:05;;;;;;;7.63;5.82;;;;;;;;;;5095305;28;20537;-77
2020/12/18 03:37:32;;;;;;;11.98;5.45;;;;;;;;;;5095144;28;20278;-78
2020/12/18 03:39:59;;;;;;;9.63;6.53;;;;;;;;;;5095131;28;20205;-77
2020/12/18 03:42:26;;;;;;;6.43;4.72;;;;;;;;;;5090666;28;20538;-77
2020/12/18 03:44:52;;;;;;;11.07;5.32;;;;;;;;;;5091235;28;20222;-78
2020/12/18 03:47:19;;;;;;;6.82;5.13;;;;;;;;;;5093096;28;20203;-78
2020/12/18 03:49:46;;;;;;;11.02;5.10;;;;;;;;;;5092716;28;20216;-78
2020/12/18 03:52:14;;;;;;;7.88;5.80;;;;;;;;;;5092890;28;20628;-78
2020/12/18 03:54:41;;;;;;;7.10;5.28;;;;;;;;;;5093730;28;20324;-77
2020/12/18 03:57:07;;;;;;;10.70;5.60;;;;;;;;;;5094939;28;20208;-77
2020/12/18 03:59:34;;;;;;;8.77;5.43;;;;;;;;;;5094867;28;20197;-77
2020/12/18 04:02:01;;;;;;;11.77;5.75;;;;;;;;;;5094732;28;20533;-77
2020/12/18 04:04:28;;;;;;;7.70;4.90;;;;;;;;;;5090135;28;20308;-78
2020/12/18 04:06:55;;;;;;;6.00;5.05;;;;;;;;;;5090776;28;20270;-77
2020/12/18 04:09:22;;;;;;;6.82;5.60;;;;;;;;;;5091282;28;20203;-77
2020/12/18 04:11:49;;;;;;;7.50;5.38;;;;;;;;;;5092281;28;20197;-79
2020/12/18 04:14:16;;;;;;;5.97;4.90;;;;;;;;;;5092790;28;20213;-77
2020/12/18 04:16:43;;;;;;;8.90;5.15;;;;;;;;;;5093675;28;20309;-76
2020/12/18 04:19:10;;;;;;;5.15;4.57;;;;;;;;;;5094375;28;20284;-77
2020/12/18 04:21:36;;;;;;;8.02;5.07;;;;;;;;;;5076539;28;20212;-79
2020/12/18 04:24:03;;;;;;;7.90;5.60;;;;;;;;;;5094068;28;20217;-77
2020/12/18 04:26:31;;;;;;;8.30;5.07;;;;;;;;;;5090142;28;20206;-77
2020/12/18 04:28:58;;;;;;;6.63;5.25;;;;;;;;;;5090416;28;20211;-76
2020/12/18 04:31:25;;;;;;;6.00;4.90;;;;;;;;;;5092027;28;20208;-78
2020/12/18 04:33:51;;;;;;;11.43;4.93;;;;;;;;;;5091687;28;20217;-77
2020/12/18 04:36:18;;;;;;;9.00;5.53;;;;;;;;;;5092076;28;20204;-78
2020/12/18 04:38:45;;;;;;;6.95;5.00;;;;;;;;;;5092945;28;20260;-78
2020/12/18 04:41:12;;;;;;;6.78;5.22;;;;;;;;;;5094100;28;20229;-78
2020/12/18 04:43:40;;;;;;;10.65;4.45;;;;;;;;;;5093717;28;20270;-78
2020/12/18 04:46:07;;;;;;;6.78;4.60;;;;;;;;;;5093776;28;20205;-77
2020/12/18 04:48:35;;;;;;;9.05;4.55;;;;;;;;;;5071723;28;20198;-76
2020/12/18 04:51:03;;;;;;;8.60;4.90;;;;;;;;;;5089694;28;20197;-77
2020/12/18 04:53:31;;;;;;;8.90;4.93;;;;;;;;;;5073498;28;20245;-77
2020/12/18 04:56:03;;;;;;;8.68;5.10;;;;;;;;;;5072608;28;20320;-80
2020/12/18 04:58:31;;;;;;;7.60;5.38;;;;;;;;;;5071141;28;20226;-79
2020/12/18 05:01:00;;;;;;;6.63;4.45;;;;;;;;;;5071789;28;20212;-77
2020/12/18 05:03:29;;;;;;;6.82;4.68;;;;;;;;;;5068805;28;20232;-77
2020/12/18 05:05:56;;;;;;;6.82;5.07;;;;;;;;;;5052031;28;20220;-77
2020/12/18 05:08:23;;;;;;;6.32;4.15;;;;;;;;;;5071321;28;20576;-79
2020/12/18 05:10:50;;;;;;;7.57;4.40;;;;;;;;;;5071239;28;20559;-79
2020/12/18 05:13:16;;;;;;;8.63;4.70;;;;;;;;;;5070817;28;20244;-80
2020/12/18 05:15:43;;;;;;;6.65;4.35;;;;;;;;;;5073370;28;20206;-77
2020/12/18 05:18:11;;;;;;;6.95;4.70;;;;;;;;;;5072960;28;20198;-78
2020/12/18 05:20:38;;;;;;;8.73;4.25;;;;;;;;;;5072709;28;20198;-76
2020/12/18 05:23:09;;;;;;;5.68;4.40;;;;;;;;;;5072140;28;20259;-77
2020/12/18 05:25:36;;;;;;;10.73;4.85;;;;;;;;;;5068446;28;20275;-79
2020/12/18 05:28:03;;;;;;;8.55;4.47;;;;;;;;;;5069784;28;20297;-79
2020/12/18 05:30:31;;;;;;;7.55;4.43;;;;;;;;;;5070403;28;20260;-78
2020/12/18 05:32:58;;;;;;;5.68;4.18;;;;;;;;;;5070486;28;20239;-78
2020/12/18 05:35:25;;;;;;;5.75;4.53;;;;;;;;;;5070568;28;20194;-78
2020/12/18 05:37:52;;;;;;;4.35;3.78;;;;;;;;;;5072705;28;20204;-79
2020/12/18 05:40:19;;;;;;;10.88;5.00;;;;;;;;;;5072533;28;20224;-78
2020/12/18 05:42:47;;;;;;;8.07;4.50;;;;;;;;;;5072485;28;20229;-78
2020/12/18 05:45:15;;;;;;;6.18;4.60;;;;;;;;;;5053792;28;20275;-78
2020/12/18 05:47:57;;;;;;;13.13;5.38;;;;;;;;;;5068264;28;20199;-77
2020/12/18 05:50:28;;;;;;;7.28;4.95;;;;;;;;;;5054090;28;20312;-78
2020/12/18 05:52:56;;;;;;;14.60;4.60;;;;;;;;;;5070260;28;20391;-78
2020/12/18 05:55:23;;;;;;;8.27;4.50;;;;;;;;;;5070159;28;20227;-77
2020/12/18 05:57:50;;;;;;;6.35;4.38;;;;;;;;;;5070294;28;20196;-76
2020/12/18 06:00:17;;;;;;;7.95;5.00;;;;;;;;;;5072612;28;20206;-79
2020/12/18 06:02:45;;;;;;;7.95;4.10;;;;;;;;;;5072251;28;20733;-77
2020/12/18 06:05:11;;;;;;;9.80;5.65;;;;;;;;;;5072341;28;20232;-79
2020/12/18 06:07:40;;;;;;;8.60;4.60;;;;;;;;;;5070539;28;20661;-78
2020/12/18 06:10:07;;;;;;;7.35;5.32;;;;;;;;;;5067603;28;20274;-78
2020/12/18 06:12:34;;;;;;;9.80;4.70;;;;;;;;;;5051593;28;20202;-78
2020/12/18 06:15:02;;;;;;;9.68;4.68;;;;;;;;;;5070203;28;20197;-78
2020/12/18 06:17:29;;;;;;;9.65;4.47;;;;;;;;;;5070298;28;20562;-78
2020/12/18 06:19:57;;;;;;;5.25;3.92;;;;;;;;;;5070325;28;20202;-77
2020/12/18 06:22:24;;;;;;;6.47;4.65;;;;;;;;;;5054309;28;20202;-77
2020/12/18 06:24:52;;;;;;;7.57;4.60;;;;;;;;;;5071756;28;20707;-77
2020/12/18 06:27:19;;;;;;;10.60;5.40;;;;;;;;;;5072295;28;20209;-77
2020/12/18 06:29:47;;;;;;;4.75;4.35;;;;;;;;;;5070554;28;20206;-77
2020/12/18 06:32:21;;;;;;;7.43;4.97;;;;;;;;;;5067457;28;20721;-76
2020/12/18 06:34:49;;;;;;;10.35;5.15;;;;;;;;;;5073340;28;20204;-77
2020/12/18 06:37:31;;;;;;;6.80;3.95;;;;;;;;;;5055521;28;20196;-79
2020/12/18 06:39:59;;;;;;;8.18;4.45;;;;;;;;;;5058272;28;20285;-77
2020/12/18 06:42:26;;;;;;;6.57;4.93;;;;;;;;;;5074242;28;20272;-76
2020/12/18 06:44:54;;;;;;;8.52;5.13;;;;;;;;;;5073608;28;20594;-77
2020/12/18 06:47:22;;;;;;;7.18;5.70;;;;;;;;;;5071259;28;20205;-76
2020/12/18 06:50:03;;;;;;;10.88;4.57;;;;;;;;;;5073309;28;20206;-77
2020/12/18 06:52:45;;;;;;;7.32;4.50;;;;;;;;;;5072638;28;20225;-77
2020/12/18 06:55:14;;;;;;;10.05;4.45;;;;;;;;;;5069863;28;20228;-77
2020/12/18 06:57:41;;;;;;;9.40;4.65;;;;;;;;;;5094550;28;20235;-77
2020/12/18 07:00:23;;;;;;;9.68;5.65;;;;;;;;;;5095605;28;20217;-76
2020/12/18 07:02:50;;;;;;;10.82;4.97;;;;;;;;;;5095080;28;20312;-76
2020/12/18 07:05:28;;;;;;;5.90;4.75;;;;;;;;;;5095505;28;20312;-76
2020/12/18 07:07:56;;;;;;;8.25;4.60;;;;;;;;;;5075237;28;20203;-76
2020/12/18 07:10:27;;;;;;;6.43;4.78;;;;;;;;;;5091306;28;20202;-76
2020/12/18 07:12:57;;;;;;;7.88;4.75;;;;;;;;;;5093005;28;20224;-77
2020/12/18 07:15:23;;;;;;;7.65;5.30;;;;;;;;;;5074879;28;20647;-76
2020/12/18 07:17:52;;;;;;;10.02;5.00;;;;;;;;;;5093622;28;20251;-77
2020/12/18 07:20:18;;;;;;;9.63;4.75;;;;;;;;;;5085583;28;20308;-76
2020/12/18 07:22:45;;;;;;;8.95;4.35;;;;;;;;;;5094839;28;20194;-79
2020/12/18 07:25:12;;;;;;;10.32;5.32;;;;;;;;;;5095325;28;20283;-82
2020/12/18 07:27:40;;;;;;;6.10;4.70;;;;;;;;;;5094698;28;20560;-76
2020/12/18 07:30:09;;;;;;;7.03;4.85;;;;;;;;;;5092808;28;20198;-77
2020/12/18 07:32:36;;;;;;;8.68;5.00;;;;;;;;;;5090810;28;20603;-77
2020/12/18 07:35:05;;;;;;;7.82;5.35;;;;;;;;;;5085380;28;20190;-76
2020/12/18 07:37:33;;;;;;;9.02;4.95;;;;;;;;;;5092833;28;20872;-77
2020/12/18 07:40:00;;;;;;;8.68;4.63;;;;;;;;;;5092458;28;20863;-76
2020/12/18 07:42:27;;;;;;;13.82;5.20;;;;;;;;;;5094072;28;20208;-76
2020/12/18 07:45:09;;;;;;;14.70;5.70;;;;;;;;;;5094995;28;20657;-76
2020/12/18 07:47:37;;;;;;;6.90;5.00;;;;;;;;;;5078631;28;20284;-78
2020/12/18 07:50:05;;;;;;;10.07;5.78;;;;;;;;;;5094038;28;20288;-77
2020/12/18 07:52:34;;;;;;;12.93;5.15;;;;;;;;;;5092099;28;20190;-80
2020/12/18 07:55:00;;;;;;;8.50;4.97;;;;;;;;;;5080301;28;20234;-76
2020/12/18 07:57:27;;;;;;;8.30;4.53;;;;;;;;;;5072140;28;20198;-76
2020/12/18 08:00:05;;;;;;;6.75;4.53;;;;;;;;;;5072539;28;20212;-78
2020/12/18 08:02:32;;;;;;;8.07;5.10;;;;;;;;;;5072618;28;20198;-76
2020/12/18 08:05:01;;;;;;;13.40;5.50;;;;;;;;;;5073102;28;20271;-77
2020/12/18 08:07:30;;;;;;;9.27;4.55;;;;;;;;;;5074682;28;20209;-78
2020/12/18 08:09:58;;;;;;;7.75;4.30;;;;;;;;;;5053353;28;20206;-77
2020/12/18 08:12:25;;;;;;;6.22;4.72;;;;;;;;;;5054537;28;20272;-77
2020/12/18 08:15:06;;;;;;;8.50;4.75;;;;;;;;;;5071238;28;20206;-76
2020/12/18 08:17:34;;;;;;;10.98;4.97;;;;;;;;;;5052832;28;20194;-77
2020/12/18 08:20:02;;;;;;;5.78;4.30;;;;;;;;;;5072178;28;20190;-77
2020/12/18 08:22:33;;;;;;;10.00;4.65;;;;;;;;;;5072083;28;20208;-77
2020/12/18 08:25:01;;;;;;;7.50;4.80;;;;;;;;;;5072338;28;20228;-77
2020/12/18 08:27:29;;;;;;;8.18;5.43;;;;;;;;;;5073214;28;20476;-77
2020/12/18 08:29:56;;;;;;;5.57;4.30;;;;;;;;;;5074093;28;20210;-77
2020/12/18 08:32:25;;;;;;;9.23;4.72;;;;;;;;;;5074198;28;20204;-78
2020/12/18 08:34:56;;;;;;;7.50;5.68;;;;;;;;;;5074170;28;20300;-76
2020/12/18 08:37:24;;;;;;;7.78;5.35;;;;;;;;;;5070646;28;20190;-76
2020/12/18 08:39:51;;;;;;;7.88;5.05;;;;;;;;;;5069775;28;20194;-76
2020/12/18 08:42:18;;;;;;;7.72;4.88;;;;;;;;;;5071748;28;20220;-77
2020/12/18 08:44:45;;;;;;;8.40;4.93;;;;;;;;;;5071864;28;20316;-77
2020/12/18 08:47:21;;;;;;;9.27;5.28;;;;;;;;;;5072149;28;20204;-78
2020/12/18 08:49:48;;;;;;;9.15;5.15;;;;;;;;;;5073095;28;20201;-76
2020/12/18 08:52:15;;;;;;;13.30;5.60;;;;;;;;;;5056447;28;20251;-77
2020/12/18 08:54:43;;;;;;;7.88;4.57;;;;;;;;;;5081220;28;20233;-77
2020/12/18 08:57:14;;;;;;;10.48;5.05;;;;;;;;;;5093491;28;20588;-77
2020/12/18 08:59:42;;;;;;;6.65;4.85;;;;;;;;;;5090449;28;20242;-76
2020/12/18 09:02:15;;;;;;;7.28;4.50;;;;;;;;;;5089805;28;20285;-77
2020/12/18 09:04:42;;;;;;;9.85;4.82;;;;;;;;;;5091500;28;20225;-77
2020/12/18 09:07:09;;;;;;;8.80;5.25;;;;;;;;;;5091264;28;20685;-76
2020/12/18 09:09:36;;;;;;;5.75;4.45;;;;;;;;;;5091545;28;20258;-76
2020/12/18 09:12:15;;;;;;;7.55;4.30;;;;;;;;;;5092565;28;20203;-78
2020/12/18 09:14:42;;;;;;;8.10;4.72;;;;;;;;;;5093578;28;20225;-75
2020/12/18 09:17:09;;;;;;;5.70;4.15;;;;;;;;;;5093561;28;20207;-77
2020/12/18 09:19:45;;;;;;;9.50;4.32;;;;;;;;;;5093544;28;20337;-75
2020/12/18 09:22:12;;;;;;;7.97;4.15;;;;;;;;;;5089201;28;20201;-78
2020/12/18 09:24:39;;;;;;;7.03;4.45;;;;;;;;;;5089856;28;20225;-76
2020/12/18 09:27:10;;;;;;;6.32;4.28;;;;;;;;;;5091140;28;20200;-77
2020/12/18 09:29:38;;;;;;;5.63;4.30;;;;;;;;;;5073196;28;20207;-77
2020/12/18 09:32:05;;;;;;;8.35;4.63;;;;;;;;;;5091179;28;20209;-77
2020/12/18 09:34:32;;;;;;;6.40;4.85;;;;;;;;;;5092351;28;20308;-79
2020/12/18 09:36:59;;;;;;;6.03;4.90;;;;;;;;;;5075427;28;20289;-78
2020/12/18 09:39:25;;;;;;;8.63;4.90;;;;;;;;;;5093353;28;20565;-76
2020/12/18 09:41:53;;;;;;;4.57;3.65;;;;;;;;;;5093211;28;20695;-78
2020/12/18 09:44:19;;;;;;;4.80;4.05;;;;;;;;;;5088439;28;20235;-78
2020/12/18 09:46:47;;;;;;;7.20;4.53;;;;;;;;;;5089278;28;20616;-77
2020/12/18 09:49:14;;;;;;;6.68;4.45;;;;;;;;;;5090739;28;20259;-76
2020/12/18 09:51:41;;;;;;;6.03;4.05;;;;;;;;;;5090857;28;20878;-76
2020/12/18 09:54:08;;;;;;;5.00;4.50;;;;;;;;;;5087406;28;20246;-76
2020/12/18 09:56:35;;;;;;;5.75;4.13;;;;;;;;;;5072074;28;20230;-76
2020/12/18 09:59:02;;;;;;;8.40;5.45;;;;;;;;;;5072658;28;20288;-78
2020/12/18 10:01:28;;;;;;;7.70;4.03;;;;;;;;;;5069707;28;20220;-80
2020/12/18 10:03:56;;;;;;;8.10;5.23;;;;;;;;;;5068713;28;20956;-77
2020/12/18 10:06:25;;;;;;;5.70;3.83;;;;;;;;;;5069958;28;21076;-79
2020/12/18 10:08:52;;;;;;;6.03;4.63;;;;;;;;;;5069285;28;20500;-78
2020/12/18 10:11:19;;;;;;;6.07;4.53;;;;;;;;;;5070614;28;20818;-77
2020/12/18 10:13:46;;;;;;;9.20;5.10;;;;;;;;;;5071049;28;20467;-77
2020/12/18 10:16:13;;;;;;;9.30;4.93;;;;;;;;;;5072326;28;20437;-78
2020/12/18 10:18:39;;;;;;;7.83;5.20;;;;;;;;;;5072494;28;20209;-79
2020/12/18 10:21:07;;;;;;;7.27;4.70;;;;;;;;;;5072596;28;20487;-77
2020/12/18 10:23:34;;;;;;;12.47;5.00;;;;;;;;;;5069674;28;20997;-77
2020/12/18 10:26:01;;;;;;;6.10;4.37;;;;;;;;;;5067873;28;21216;-78
2020/12/18 10:28:28;;;;;;;7.33;5.27;;;;;;;;;;5069606;28;21028;-76
2020/12/18 10:30:54;;;;;;;7.45;4.85;;;;;;;;;;5070216;28;20449;-77
2020/12/18 10:33:21;;;;;;;9.20;4.47;;;;;;;;;;5070488;28;20221;-78
2020/12/18 10:35:48;;;;;;;12.10;5.77;;;;;;;;;;5070962;28;20201;-79
2020/12/18 10:38:16;;;;;;;8.60;4.85;;;;;;;;;;5072261;28;20496;-75
2020/12/18 10:40:43;;;;;;;5.67;4.50;;;;;;;;;;5072337;28;20288;-76
2020/12/18 10:43:12;;;;;;;9.13;4.73;;;;;;;;;;5071915;28;20562;-80
2020/12/18 10:45:39;;;;;;;10.45;5.03;;;;;;;;;;5069174;28;20490;-78
2020/12/18 10:48:06;;;;;;;6.83;4.83;;;;;;;;;;5068180;28;20212;-80
2020/12/18 10:50:32;;;;;;;5.97;5.13;;;;;;;;;;5069497;28;20463;-78
2020/12/18 10:53:00;;;;;;;11.60;5.20;;;;;;;;;;5069902;28;20476;-76
2020/12/18 10:55:28;;;;;;;8.38;4.75;;;;;;;;;;5069650;28;20490;-78
2020/12/18 10:57:55;;;;;;;5.27;4.20;;;;;;;;;;5070229;28;20213;-76
2020/12/18 11:00:21;;;;;;;5.90;4.13;;;;;;;;;;5068396;28;20439;-78
2020/12/18 11:02:48;;;;;;;5.50;4.40;;;;;;;;;;5067866;28;20450;-75
2020/12/18 11:05:15;;;;;;;8.80;4.33;;;;;;;;;;5070119;28;20536;-76
2020/12/18 11:07:42;;;;;;;4.80;3.83;;;;;;;;;;5069573;28;20449;-76
2020/12/18 11:10:09;;;;;;;5.90;4.23;;;;;;;;;;5069822;28;20500;-77
2020/12/18 11:12:36;;;;;;;6.90;3.73;;;;;;;;;;5070687;28;20486;-77
2020/12/18 11:15:03;;;;;;;10.90;4.10;;;;;;;;;;5071996;28;20447;-78
2020/12/18 11:17:30;;;;;;;5.30;4.10;;;;;;;;;;5071996;28;20530;-78
2020/12/18 11:19:59;;;;;;;6.83;3.93;;;;;;;;;;5074306;28;20477;-76
2020/12/18 11:22:26;;;;;;;6.30;4.87;;;;;;;;;;5071521;28;20486;-76
2020/12/18 11:24:52;;;;;;;5.93;3.97;;;;;;;;;;5071101;28;20478;-77
2020/12/18 11:27:19;;;;;;;4.40;3.80;;;;;;;;;;5073418;28;20804;-78
2020/12/18 11:29:47;;;;;;;8.77;4.50;;;;;;;;;;5072976;28;20932;-77
2020/12/18 11:32:17;;;;;;;4.37;3.97;;;;;;;;;;5073360;28;20814;-76
2020/12/18 11:34:44;;;;;;;6.20;3.67;;;;;;;;;;5074310;28;20988;-79
2020/12/18 11:37:10;;;;;;;5.83;3.87;;;;;;;;;;5075130;28;20453;-77
2020/12/18 11:39:37;;;;;;;5.67;4.07;;;;;;;;;;5075036;28;20493;-76
2020/12/18 11:42:04;;;;;;;8.43;4.30;;;;;;;;;;5068514;28;20447;-77
2020/12/18 11:44:31;;;;;;;7.60;4.63;;;;;;;;;;5067036;28;20512;-79
2020/12/18 11:46:59;;;;;;;3.90;3.40;;;;;;;;;;5069411;28;20454;-78
2020/12/18 11:49:25;;;;;;;6.63;3.80;;;;;;;;;;5069478;28;20451;-78
2020/12/18 11:51:52;;;;;;;6.60;4.13;;;;;;;;;;5069662;28;20458;-77
2020/12/18 11:54:19;;;;;;;5.87;4.47;;;;;;;;;;5073614;28;20493;-78
2020/12/18 11:56:48;;;;;;;5.30;4.27;;;;;;;;;;5091766;28;20499;-78
2020/12/18 11:59:15;;;;;;;6.30;4.30;;;;;;;;;;5091865;28;20470;-78
2020/12/18 12:01:42;;;;;;;7.17;4.37;;;;;;;;;;5091361;28;20458;-76
2020/12/18 12:04:09;;;;;;;6.70;3.80;;;;;;;;;;5088710;28;21102;-76
2020/12/18 12:06:36;;;;;;;5.30;4.00;;;;;;;;;;5086829;28;20494;-77
2020/12/18 12:09:04;;;;;;;5.60;4.13;;;;;;;;;;5089026;28;20994;-74
2020/12/18 12:11:36;;;;;;;6.03;4.47;;;;;;;;;;5089201;28;20833;-79
2020/12/18 12:14:03;;;;;;;6.10;4.40;;;;;;;;;;5089520;28;20470;-77
2020/12/18 12:16:32;;;;;;;6.40;4.00;;;;;;;;;;5089309;28;20463;-78
2020/12/18 12:18:59;;;;;;;7.73;4.43;;;;;;;;;;5091326;28;20559;-79
2020/12/18 12:21:33;;;;;;;7.50;4.07;;;;;;;;;;5091330;28;20807;-75
2020/12/18 12:23:59;;;;;;;9.07;4.20;;;;;;;;;;5072989;28;20467;-76
2020/12/18 12:26:26;;;;;;;4.40;3.97;;;;;;;;;;5088149;28;20483;-76
2020/12/18 12:28:53;;;;;;;5.70;4.13;;;;;;;;;;5086948;28;20441;-77
2020/12/18 12:31:20;;;;;;;4.90;3.80;;;;;;;;;;5087692;28;20444;-76
2020/12/18 12:33:47;;;;;;;4.33;3.57;;;;;;;;;;5090631;28;20864;-78
2020/12/18 12:36:18;;;;;;;4.50;3.77;;;;;;;;;;5091817;28;20435;-78
2020/12/18 12:38:45;;;;;;;5.17;4.20;;;;;;;;;;5092819;28;20461;-78
2020/12/18 12:41:12;;;;;;;7.33;3.87;;;;;;;;;;5092609;28;20935;-76
2020/12/18 12:43:39;;;;;;;7.60;3.70;;;;;;;;;;5094129;28;20545;-77
2020/12/18 12:46:06;;;;;;;5.37;3.80;;;;;;;;;;5094036;28;20562;-77
2020/12/18 12:48:32;;;;;;;6.40;4.57;;;;;;;;;;5091115;28;20451;-77
2020/12/18 12:50:59;;;;;;;6.90;3.90;;;;;;;;;;5090140;28;20442;-77
2020/12/18 12:53:26;;;;;;;4.60;3.60;;;;;;;;;;5091776;28;20516;-77
2020/12/18 12:55:54;;;;;;;6.83;3.70;;;;;;;;;;5073728;28;20471;-75
2020/12/18 12:58:21;;;;;;;6.10;4.13;;;;;;;;;;5071603;28;20940;-75
2020/12/18 13:00:48;;;;;;;15.10;6.30;;;;;;;;;;5051194;28;20468;-75
2020/12/18 13:03:15;;;;;;;5.07;3.63;;;;;;;;;;5054160;28;20559;-76
2020/12/18 13:05:43;;;;;;;5.30;4.10;;;;;;;;;;5053696;28;20516;-77
2020/12/18 13:08:10;;;;;;;6.30;4.00;;;;;;;;;;5053539;28;20445;-77
2020/12/18 13:10:38;;;;;;;7.70;3.93;;;;;;;;;;5064452;28;20451;-77
2020/12/18 13:13:06;;;;;;;7.23;4.93;;;;;;;;;;5069230;28;20456;-78
2020/12/18 13:15:33;;;;;;;5.70;4.17;;;;;;;;;;5070818;28;20479;-76
2020/12/18 13:18:00;;;;;;;3.73;3.20;;;;;;;;;;5071302;28;20440;-78
2020/12/18 13:20:27;;;;;;;6.70;3.60;;;;;;;;;;5071261;28;20500;-77
2020/12/18 13:22:54;;;;;;;4.83;3.63;;;;;;;;;;5050600;28;20504;-77
2020/12/18 13:25:24;;;;;;;8.17;3.77;;;;;;;;;;5053091;28;20487;-77
2020/12/18 13:27:50;;;;;;;5.30;3.80;;;;;;;;;;5053312;28;20852;-77
2020/12/18 13:30:18;;;;;;;6.70;3.63;;;;;;;;;;5053172;28;20479;-77
2020/12/18 13:32:45;;;;;;;5.70;3.40;;;;;;;;;;5064550;28;20815;-76
2020/12/18 13:35:12;;;;;;;5.10;3.67;;;;;;;;;;5069343;28;20432;-76
2020/12/18 13:37:39;;;;;;;6.77;3.57;;;;;;;;;;5070893;28;20455;-77
2020/12/18 13:40:06;;;;;;;5.80;3.53;;;;;;;;;;5070672;28;20940;-76
2020/12/18 13:42:35;;;;;;;4.43;2.80;;;;;;;;;;5071023;28;20710;-77
2020/12/18 13:45:01;;;;;;;4.50;3.23;;;;;;;;;;5071749;28;20476;-76
2020/12/18 13:47:29;;;;;;;4.53;2.83;;;;;;;;;;5072932;28;20523;-77
2020/12/18 13:49:56;;;;;;;4.60;3.50;;;;;;;;;;5072786;28;20444;-76
2020/12/18 13:52:23;;;;;;;3.83;2.77;;;;;;;;;;5072784;28;20446;-76
2020/12/18 13:54:49;;;;;;;3.10;2.77;;;;;;;;;;5069030;28;20528;-76
2020/12/18 13:57:17;;;;;;;5.70;3.10;;;;;;;;;;5068913;28;20439;-76
2020/12/18 13:59:44;;;;;;;4.23;2.67;;;;;;;;;;5070352;28;20936;-76
2020/12/18 14:02:11;;;;;;;4.97;3.07;;;;;;;;;;5070391;28;20444;-77
2020/12/18 14:04:38;;;;;;;6.70;3.97;;;;;;;;;;5070455;28;20478;-76
2020/12/18 14:07:05;;;;;;;4.00;2.70;;;;;;;;;;5071434;28;20967;-76
2020/12/18 14:09:33;;;;;;;5.20;3.17;;;;;;;;;;5072486;28;20446;-76
2020/12/18 14:12:00;;;;;;;5.50;3.50;;;;;;;;;;5072700;28;20447;-78
2020/12/18 14:14:27;;;;;;;5.60;3.20;;;;;;;;;;5072556;28;20494;-76
2020/12/18 14:16:54;;;;;;;6.13;2.50;;;;;;;;;;5068971;28;20437;-78
2020/12/18 14:19:21;;;;;;;4.80;3.60;;;;;;;;;;5068434;28;20438;-77
2020/12/18 14:21:51;;;;;;;4.43;2.57;;;;;;;;;;5070501;28;20489;-77
2020/12/18 14:24:18;;;;;;;4.53;2.77;;;;;;;;;;5070311;28;20503;-76
2020/12/18 14:26:45;;;;;;;4.23;2.70;;;;;;;;;;5070620;28;20506;-77
2020/12/18 14:29:12;;;;;;;5.07;2.83;;;;;;;;;;5071313;28;20470;-77
2020/12/18 14:31:38;;;;;;;6.70;2.80;;;;;;;;;;5072186;28;20522;-78
2020/12/18 14:34:05;;;;;;;4.10;2.53;;;;;;;;;;5066914;28;20476;-76
2020/12/18 14:36:32;;;;;;;4.63;2.87;;;;;;;;;;5068094;28;20474;-76
2020/12/18 14:39:00;;;;;;;8.90;3.33;;;;;;;;;;5069897;28;20455;-76
2020/12/18 14:41:27;;;;;;;5.47;3.03;;;;;;;;;;5070393;28;20497;-75
2020/12/18 14:43:53;;;;;;;3.47;2.77;;;;;;;;;;5070031;28;20550;-76